createdAt,value
2022-11-17T00:00:27.591Z,8.65
2022-11-17T00:03:07.517Z,8.90
2022-11-17T00:05:35.132Z,8.88
2022-11-17T00:08:02.756Z,9.31
2022-11-17T00:10:30.112Z,9.17
2022-11-17T00:13:13.524Z,9.08
2022-11-17T00:15:41.317Z,9.07
2022-11-17T00:18:08.682Z,9.02
2022-11-17T00:20:36.306Z,9.07
2022-11-17T00:23:03.786Z,9.12
2022-11-17T00:25:31.530Z,8.86
2022-11-17T00:27:58.943Z,9.21
2022-11-17T00:30:26.451Z,9.21
2022-11-17T00:33:00.562Z,9.04
2022-11-17T00:35:28.565Z,8.83
2022-11-17T00:37:56.021Z,8.74
2022-11-17T00:40:25.523Z,8.80
2022-11-17T00:42:53.099Z,8.70
2022-11-17T00:45:20.720Z,8.92
2022-11-17T00:47:48.171Z,9.07
2022-11-17T00:50:15.476Z,8.91
2022-11-17T00:52:42.713Z,9.34
2022-11-17T00:55:10.015Z,9.39
2022-11-17T00:57:37.317Z,9.41
2022-11-17T01:00:04.558Z,8.95
2022-11-17T01:02:31.849Z,9.06
2022-11-17T01:05:01.205Z,9.26
2022-11-17T01:07:28.552Z,9.53
2022-11-17T01:09:55.852Z,9.56
2022-11-17T01:12:23.108Z,9.08
2022-11-17T01:14:50.346Z,8.84
2022-11-17T01:17:17.617Z,9.25
2022-11-17T01:19:46.966Z,9.56
2022-11-17T01:22:14.257Z,9.39
2022-11-17T01:24:41.604Z,9.70
2022-11-17T01:27:08.896Z,9.10
2022-11-17T01:29:36.123Z,9.23
2022-11-17T01:32:03.467Z,8.96
2022-11-17T01:34:30.710Z,9.11
2022-11-17T01:36:58.057Z,9.01
2022-11-17T01:39:25.428Z,8.64
2022-11-17T01:41:52.792Z,8.57
2022-11-17T01:44:20.143Z,8.72
2022-11-17T01:46:47.591Z,9.08
2022-11-17T01:49:14.867Z,8.80
2022-11-17T01:51:42.142Z,9.00
2022-11-17T01:54:09.467Z,8.82
2022-11-17T01:56:36.738Z,8.95
2022-11-17T01:59:03.965Z,9.26
2022-11-17T02:01:31.369Z,8.66
2022-11-17T02:03:58.681Z,8.64
2022-11-17T02:06:25.952Z,9.01
2022-11-17T02:08:53.170Z,8.52
2022-11-17T02:11:20.451Z,8.64
2022-11-17T02:13:47.673Z,8.90
2022-11-17T02:16:15.009Z,8.88
2022-11-17T02:18:42.298Z,9.18
2022-11-17T02:21:09.628Z,9.08
2022-11-17T02:23:39.224Z,9.10
2022-11-17T02:26:07.594Z,8.99
2022-11-17T02:28:35.099Z,8.71
2022-11-17T02:31:02.613Z,8.97
2022-11-17T02:33:30.417Z,8.88
2022-11-17T02:35:57.810Z,9.05
2022-11-17T02:38:25.091Z,9.44
2022-11-17T02:40:52.751Z,9.11
2022-11-17T02:43:20.002Z,9.22
2022-11-17T02:45:47.250Z,9.30
2022-11-17T02:48:14.521Z,9.37
2022-11-17T02:50:41.756Z,9.24
2022-11-17T02:53:09.139Z,9.26
2022-11-17T02:55:36.773Z,9.07
2022-11-17T02:58:04.220Z,9.41
2022-11-17T03:00:31.511Z,8.81
2022-11-17T03:03:01.659Z,9.10
2022-11-17T03:05:29.454Z,9.19
2022-11-17T03:08:01.964Z,9.14
2022-11-17T03:10:29.395Z,9.17
2022-11-17T03:12:56.681Z,9.58
2022-11-17T03:15:25.939Z,9.48
2022-11-17T03:17:53.236Z,9.16
2022-11-17T03:20:20.480Z,9.20
2022-11-17T03:22:47.743Z,9.42
2022-11-17T03:25:15.066Z,8.95
2022-11-17T03:27:42.354Z,9.36
2022-11-17T03:30:09.590Z,9.08
2022-11-17T03:32:36.850Z,9.28
2022-11-17T03:35:04.125Z,9.27
2022-11-17T03:37:31.347Z,9.32
2022-11-17T03:39:58.623Z,9.24
2022-11-17T03:42:26.020Z,9.34
2022-11-17T03:44:53.260Z,9.50
2022-11-17T03:47:20.512Z,9.46
2022-11-17T03:49:47.771Z,9.52
2022-11-17T03:52:15.217Z,9.61
2022-11-17T03:54:42.580Z,9.57
2022-11-17T03:57:10.224Z,9.69
2022-11-17T03:59:37.989Z,9.21
2022-11-17T04:02:05.707Z,9.47
2022-11-17T04:04:33.647Z,9.67
2022-11-17T04:07:01.445Z,9.66
2022-11-17T04:09:30.583Z,9.96
2022-11-17T04:11:57.813Z,9.95
2022-11-17T04:14:45.119Z,9.71
2022-11-17T04:17:15.820Z,9.71
2022-11-17T04:19:43.065Z,9.38
2022-11-17T04:22:10.425Z,9.49
2022-11-17T04:24:38.092Z,9.82
2022-11-17T04:27:05.528Z,9.11
2022-11-17T04:29:33.086Z,9.52
2022-11-17T04:32:00.747Z,9.36
2022-11-17T04:34:28.140Z,9.74
2022-11-17T04:36:55.666Z,9.74
2022-11-17T04:39:23.028Z,9.74
2022-11-17T04:41:50.302Z,9.94
2022-11-17T04:44:17.565Z,9.94
2022-11-17T04:46:44.801Z,10.14
2022-11-17T04:49:12.086Z,10.09
2022-11-17T04:51:39.428Z,10.01
2022-11-17T04:54:06.657Z,9.85
2022-11-17T04:56:33.927Z,9.76
2022-11-17T04:59:01.177Z,9.93
2022-11-17T05:01:28.427Z,9.60
2022-11-17T05:03:55.680Z,9.77
2022-11-17T05:06:22.915Z,10.05
2022-11-17T05:08:50.173Z,9.65
2022-11-17T05:11:17.537Z,9.91
2022-11-17T05:13:44.779Z,10.19
2022-11-17T05:16:12.080Z,10.31
2022-11-17T05:18:39.345Z,10.47
2022-11-17T05:21:07.200Z,10.31
2022-11-17T05:23:35.056Z,10.27
2022-11-17T05:26:02.959Z,10.69
2022-11-17T05:28:30.752Z,10.62
2022-11-17T05:30:58.111Z,10.87
2022-11-17T05:33:25.872Z,10.88
2022-11-17T05:35:53.234Z,11.02
2022-11-17T05:38:20.568Z,11.11
2022-11-17T05:40:47.843Z,10.93
2022-11-17T05:43:15.129Z,10.80
2022-11-17T05:45:42.380Z,10.52
2022-11-17T05:48:09.603Z,10.32
2022-11-17T05:50:36.872Z,10.17
2022-11-17T05:53:04.429Z,10.08
2022-11-17T05:55:31.963Z,10.21
2022-11-17T05:58:02.272Z,10.26
2022-11-17T06:00:29.766Z,10.31
2022-11-17T06:02:57.353Z,10.00
2022-11-17T06:05:24.782Z,9.89
2022-11-17T06:07:52.409Z,9.95
2022-11-17T06:10:25.312Z,9.95
2022-11-17T06:12:52.578Z,10.18
2022-11-17T06:15:19.842Z,9.98
2022-11-17T06:17:47.089Z,9.89
2022-11-17T06:20:14.338Z,10.31
2022-11-17T06:22:45.523Z,10.26
2022-11-17T06:25:15.516Z,10.31
2022-11-17T06:27:42.860Z,10.03
2022-11-17T06:30:12.461Z,10.19
2022-11-17T06:32:39.936Z,10.42
2022-11-17T06:35:07.240Z,10.68
2022-11-17T06:37:35.072Z,10.53
2022-11-17T06:40:02.777Z,10.28
2022-11-17T06:42:30.112Z,10.36
2022-11-17T06:44:57.353Z,10.46
2022-11-17T06:47:24.596Z,10.17
2022-11-17T06:49:51.874Z,9.75
2022-11-17T06:52:19.608Z,9.90
2022-11-17T06:54:47.053Z,10.44
2022-11-17T06:57:14.380Z,10.39
2022-11-17T06:59:41.780Z,10.31
2022-11-17T07:02:09.126Z,10.21
2022-11-17T07:04:36.473Z,10.09
2022-11-17T07:07:04.367Z,10.32
2022-11-17T07:09:32.327Z,10.38
2022-11-17T07:11:59.714Z,10.41
2022-11-17T07:14:27.275Z,10.39
2022-11-17T07:17:04.793Z,10.13
2022-11-17T07:19:32.483Z,10.26
2022-11-17T07:21:59.922Z,10.38
2022-11-17T07:24:27.612Z,10.28
2022-11-17T07:26:54.989Z,10.38
2022-11-17T07:29:22.317Z,10.63
2022-11-17T07:31:49.713Z,10.44
2022-11-17T07:34:16.973Z,10.56
2022-11-17T07:36:44.255Z,10.54
2022-11-17T07:39:11.650Z,10.46
2022-11-17T07:41:39.050Z,10.40
2022-11-17T07:44:06.740Z,10.24
2022-11-17T07:46:34.122Z,10.29
2022-11-17T07:49:01.478Z,10.55
2022-11-17T07:51:28.794Z,10.33
2022-11-17T07:53:56.150Z,10.23
2022-11-17T07:56:23.569Z,10.51
2022-11-17T07:58:50.894Z,10.35
2022-11-17T08:01:18.342Z,10.44
2022-11-17T08:03:45.895Z,10.74
2022-11-17T08:06:13.285Z,10.45
2022-11-17T08:08:40.838Z,10.59
2022-11-17T08:11:08.660Z,10.23
2022-11-17T08:13:36.022Z,10.31
2022-11-17T08:16:03.373Z,10.59
2022-11-17T08:18:30.721Z,10.70
2022-11-17T08:20:58.217Z,10.45
2022-11-17T08:23:27.529Z,10.19
2022-11-17T08:25:55.122Z,10.41
2022-11-17T08:28:22.755Z,10.17
2022-11-17T08:30:50.598Z,10.02
2022-11-17T08:33:18.509Z,10.28
2022-11-17T08:35:46.422Z,10.48
2022-11-17T08:38:14.302Z,10.59
2022-11-17T08:40:41.686Z,10.46
2022-11-17T08:43:10.070Z,10.85
2022-11-17T08:45:37.421Z,11.01
2022-11-17T08:48:05.558Z,10.70
2022-11-17T08:50:32.972Z,10.76
2022-11-17T08:53:00.363Z,10.59
2022-11-17T08:55:29.337Z,10.62
2022-11-17T08:57:56.698Z,10.66
2022-11-17T09:00:24.472Z,10.52
2022-11-17T09:02:51.938Z,10.69
2022-11-17T09:05:19.443Z,10.30
2022-11-17T09:07:46.929Z,10.43
2022-11-17T09:10:14.668Z,10.55
2022-11-17T09:12:41.961Z,10.83
2022-11-17T09:15:09.317Z,10.65
2022-11-17T09:17:36.664Z,10.07
2022-11-17T09:20:04.397Z,10.54
2022-11-17T09:22:31.784Z,10.86
2022-11-17T09:24:59.607Z,10.96
2022-11-17T09:27:26.971Z,10.86
2022-11-17T09:29:54.513Z,10.51
2022-11-17T09:32:22.200Z,10.67
2022-11-17T09:35:07.180Z,11.21
2022-11-17T09:37:34.625Z,10.69
2022-11-17T09:40:01.973Z,11.08
2022-11-17T09:42:29.555Z,11.05
2022-11-17T09:44:57.313Z,10.87
2022-11-17T09:47:24.659Z,10.78
2022-11-17T09:49:58.037Z,10.83
2022-11-17T09:52:31.485Z,11.04
2022-11-17T09:54:59.240Z,10.29
2022-11-17T09:57:26.524Z,11.19
2022-11-17T09:59:54.551Z,11.51
2022-11-17T10:02:22.044Z,11.35
2022-11-17T10:04:59.597Z,11.66
2022-11-17T10:07:27.008Z,11.86
2022-11-17T10:09:54.830Z,11.53
2022-11-17T10:12:22.592Z,11.97
2022-11-17T10:15:07.158Z,11.76
2022-11-17T10:17:34.480Z,11.82
2022-11-17T10:20:01.845Z,12.13
2022-11-17T10:22:29.576Z,12.32
2022-11-17T10:24:57.281Z,12.32
2022-11-17T10:27:25.171Z,12.62
2022-11-17T10:29:52.500Z,12.38
2022-11-17T10:32:19.783Z,12.73
2022-11-17T10:34:48.256Z,12.70
2022-11-17T10:37:15.581Z,12.64
2022-11-17T10:39:43.160Z,12.40
2022-11-17T10:42:10.710Z,12.31
2022-11-17T10:44:38.563Z,12.44
2022-11-17T10:47:05.964Z,12.61
2022-11-17T10:49:33.315Z,12.18
2022-11-17T10:52:00.849Z,12.16
2022-11-17T10:54:28.212Z,12.36
2022-11-17T10:56:55.756Z,12.47
2022-11-17T10:59:23.156Z,12.97
2022-11-17T11:01:50.672Z,12.84
2022-11-17T11:04:18.122Z,12.68
2022-11-17T11:06:45.806Z,12.58
2022-11-17T11:09:13.356Z,12.63
2022-11-17T11:11:49.188Z,12.59
2022-11-17T11:14:16.687Z,12.32
2022-11-17T11:16:48.020Z,12.44
2022-11-17T11:19:16.210Z,12.03
2022-11-17T11:21:43.650Z,11.93
2022-11-17T11:24:11.233Z,11.56
2022-11-17T11:26:39.016Z,11.23
2022-11-17T11:29:07.047Z,11.35
2022-11-17T11:31:34.870Z,11.36
2022-11-17T11:34:02.412Z,11.02
2022-11-17T11:36:37.145Z,11.43
2022-11-17T11:39:04.620Z,11.34
2022-11-17T11:41:32.129Z,10.92
2022-11-17T11:44:12.131Z,11.23
2022-11-17T11:46:39.465Z,11.25
2022-11-17T11:49:07.248Z,11.10
2022-11-17T11:51:40.373Z,11.11
2022-11-17T11:54:08.354Z,11.75
2022-11-17T11:56:36.168Z,11.25
2022-11-17T11:59:03.582Z,11.64
2022-11-17T12:01:36.522Z,11.48
2022-11-17T12:04:03.883Z,11.67
2022-11-17T12:06:31.756Z,11.27
2022-11-17T12:08:59.612Z,10.88
2022-11-17T12:11:27.311Z,11.16
2022-11-17T12:13:55.116Z,10.99
2022-11-17T12:16:23.129Z,10.97
2022-11-17T12:18:50.677Z,10.89
2022-11-17T12:21:18.032Z,10.91
2022-11-17T12:23:45.696Z,10.74
2022-11-17T12:26:13.041Z,11.18
2022-11-17T12:28:56.099Z,11.23
2022-11-17T12:31:23.968Z,11.00
2022-11-17T12:33:51.493Z,10.85
2022-11-17T12:36:19.492Z,10.68
2022-11-17T12:38:47.214Z,10.65
2022-11-17T12:41:14.616Z,10.98
2022-11-17T12:43:42.191Z,10.93
2022-11-17T12:46:10.037Z,10.89
2022-11-17T12:48:54.109Z,10.72
2022-11-17T12:51:21.669Z,11.07
2022-11-17T12:53:49.190Z,10.97
2022-11-17T12:56:27.623Z,11.30
2022-11-17T12:58:55.070Z,11.25
2022-11-17T13:01:22.519Z,11.19
2022-11-17T13:03:49.992Z,11.01
2022-11-17T13:06:34.896Z,11.06
2022-11-17T13:09:09.197Z,10.98
2022-11-17T13:11:36.721Z,10.80
2022-11-17T13:14:04.236Z,10.30
2022-11-17T13:16:32.169Z,10.94
2022-11-17T13:18:59.624Z,11.18
2022-11-17T13:21:27.361Z,11.52
2022-11-17T13:23:57.262Z,11.69
2022-11-17T13:26:24.867Z,11.99
2022-11-17T13:28:52.184Z,12.33
2022-11-17T13:31:19.975Z,12.21
2022-11-17T13:33:47.318Z,12.47
2022-11-17T13:36:15.077Z,12.41
2022-11-17T13:38:42.684Z,12.89
2022-11-17T13:41:11.521Z,12.93
2022-11-17T13:43:38.927Z,13.19
2022-11-17T13:46:06.581Z,13.36
2022-11-17T13:48:34.427Z,12.98
2022-11-17T13:51:01.802Z,12.79
2022-11-17T13:53:29.426Z,13.04
2022-11-17T13:55:56.911Z,13.14
2022-11-17T13:58:26.915Z,13.38
2022-11-17T14:00:54.691Z,13.54
2022-11-17T14:03:22.481Z,13.54
2022-11-17T14:05:55.433Z,13.46
2022-11-17T14:08:22.911Z,13.37
2022-11-17T14:10:50.578Z,13.25
2022-11-17T14:13:19.492Z,13.23
2022-11-17T14:15:52.261Z,13.25
2022-11-17T14:18:29.023Z,13.09
2022-11-17T14:20:56.394Z,13.03
2022-11-17T14:23:23.844Z,13.15
2022-11-17T14:25:51.098Z,12.90
2022-11-17T14:28:37.236Z,13.31
2022-11-17T14:31:24.832Z,13.80
2022-11-17T14:34:12.947Z,13.56
2022-11-17T14:37:00.795Z,13.17
2022-11-17T14:39:48.380Z,13.14
2022-11-17T14:42:36.451Z,13.34
2022-11-17T14:45:24.177Z,13.58
2022-11-17T14:48:17.600Z,13.53
2022-11-17T14:51:06.587Z,13.52
2022-11-17T14:53:54.159Z,13.74
2022-11-17T14:56:41.712Z,13.61
2022-11-17T14:59:29.268Z,13.67
2022-11-17T15:02:16.826Z,13.74
2022-11-17T15:05:04.453Z,13.73
2022-11-17T15:07:51.993Z,13.59
2022-11-17T15:10:39.568Z,13.25
2022-11-17T15:13:27.138Z,13.10
2022-11-17T15:16:14.730Z,13.27
2022-11-17T15:19:02.329Z,13.22
2022-11-17T15:21:49.923Z,12.88
2022-11-17T15:24:37.519Z,13.28
2022-11-17T15:27:25.108Z,13.27
2022-11-17T15:30:12.684Z,12.83
2022-11-17T15:33:00.265Z,12.80
2022-11-17T15:35:47.893Z,12.96
2022-11-17T15:38:35.576Z,12.65
2022-11-17T15:41:23.582Z,12.54
2022-11-17T15:44:03.590Z,12.45
2022-11-17T15:46:31.300Z,12.81
2022-11-17T15:48:58.762Z,12.75
2022-11-17T15:51:26.454Z,12.61
2022-11-17T15:53:53.791Z,12.45
2022-11-17T15:56:21.676Z,12.23
2022-11-17T15:58:49.000Z,12.07
2022-11-17T16:01:16.721Z,12.05
2022-11-17T16:03:44.730Z,12.29
2022-11-17T16:06:12.490Z,12.49
2022-11-17T16:08:40.176Z,12.59
2022-11-17T16:11:07.823Z,12.63
2022-11-17T16:13:35.466Z,12.73
2022-11-17T16:16:03.233Z,12.73
2022-11-17T16:18:30.573Z,12.66
2022-11-17T16:21:02.979Z,12.48
2022-11-17T16:23:32.064Z,12.76
2022-11-17T16:25:59.410Z,12.57
2022-11-17T16:28:27.168Z,12.74
2022-11-17T16:30:54.760Z,12.79
2022-11-17T16:33:28.979Z,12.74
2022-11-17T16:35:56.714Z,12.75
2022-11-17T16:38:24.293Z,12.72
2022-11-17T16:40:52.068Z,12.76
2022-11-17T16:43:19.617Z,12.75
2022-11-17T16:45:49.916Z,12.91
2022-11-17T16:48:17.427Z,12.78
2022-11-17T16:50:44.834Z,12.77
2022-11-17T16:53:12.319Z,12.97
2022-11-17T16:55:40.077Z,13.06
2022-11-17T16:58:23.941Z,12.68
2022-11-17T17:00:51.591Z,13.12
2022-11-17T17:03:19.433Z,13.14
2022-11-17T17:05:47.137Z,12.93
2022-11-17T17:08:14.653Z,13.10
2022-11-17T17:10:42.513Z,13.20
2022-11-17T17:13:10.010Z,13.06
2022-11-17T17:15:37.287Z,12.62
2022-11-17T17:18:04.740Z,12.90
2022-11-17T17:20:32.601Z,13.05
2022-11-17T17:23:03.161Z,12.94
2022-11-17T17:25:30.965Z,12.59
2022-11-17T17:27:58.429Z,12.40
2022-11-17T17:30:25.785Z,12.09
2022-11-17T17:32:53.229Z,12.02
2022-11-17T17:35:20.612Z,11.53
2022-11-17T17:37:48.482Z,11.71
2022-11-17T17:40:23.919Z,12.00
2022-11-17T17:42:51.370Z,11.37
2022-11-17T17:45:18.802Z,11.19
2022-11-17T17:47:46.080Z,11.66
2022-11-17T17:50:32.181Z,11.28
2022-11-17T17:53:19.763Z,10.82
2022-11-17T17:56:07.379Z,10.83
2022-11-17T17:58:54.945Z,10.72
2022-11-17T18:01:42.537Z,10.16
2022-11-17T18:04:30.135Z,10.17
2022-11-17T18:07:17.742Z,10.14
2022-11-17T18:10:05.451Z,9.91
2022-11-17T18:12:53.033Z,9.59
2022-11-17T18:15:40.598Z,9.38
2022-11-17T18:18:28.148Z,9.45
2022-11-17T18:21:15.739Z,9.41
2022-11-17T18:24:03.299Z,8.98
2022-11-17T18:26:50.923Z,9.20
2022-11-17T18:29:38.498Z,8.94
2022-11-17T18:32:26.077Z,8.95
2022-11-17T18:35:13.672Z,9.09
2022-11-17T18:38:01.240Z,8.74
2022-11-17T18:40:48.810Z,9.27
2022-11-17T18:43:36.413Z,9.18
2022-11-17T18:46:25.028Z,9.36
2022-11-17T18:49:12.592Z,9.53
2022-11-17T18:52:00.166Z,9.23
2022-11-17T18:54:47.744Z,9.27
2022-11-17T18:57:35.369Z,9.43
2022-11-17T19:00:22.945Z,9.17
2022-11-17T19:03:10.535Z,9.08
2022-11-17T19:05:58.110Z,9.29
2022-11-17T19:08:45.668Z,9.18
2022-11-17T19:11:33.233Z,9.31
2022-11-17T19:14:20.844Z,9.43
2022-11-17T19:17:08.430Z,9.34
2022-11-17T19:19:55.976Z,9.53
2022-11-17T19:22:43.559Z,9.45
2022-11-17T19:25:31.169Z,9.16
2022-11-17T19:28:18.752Z,8.90
2022-11-17T19:31:06.313Z,8.90
2022-11-17T19:33:53.925Z,8.90
2022-11-17T19:36:41.483Z,8.87
2022-11-17T19:39:29.125Z,9.01
2022-11-17T19:42:16.664Z,9.06
2022-11-17T19:45:04.228Z,8.86
2022-11-17T19:47:51.844Z,9.11
2022-11-17T19:50:39.415Z,9.04
2022-11-17T19:53:26.953Z,9.05
2022-11-17T19:56:14.517Z,8.90
2022-11-17T19:59:02.109Z,9.08
2022-11-17T20:01:49.716Z,9.02
2022-11-17T20:04:37.277Z,9.05
2022-11-17T20:07:24.894Z,9.25
2022-11-17T20:10:12.496Z,8.84
2022-11-17T20:13:00.084Z,8.97
2022-11-17T20:15:47.634Z,8.81
2022-11-17T20:18:35.212Z,8.92
2022-11-17T20:21:22.759Z,8.89
2022-11-17T20:24:10.354Z,9.05
2022-11-17T20:26:57.896Z,9.36
2022-11-17T20:29:45.464Z,9.56
2022-11-17T20:32:33.036Z,9.50
2022-11-17T20:35:20.607Z,9.69
2022-11-17T20:38:13.004Z,9.74
2022-11-17T20:41:02.214Z,9.72
2022-11-17T20:43:49.784Z,10.23
2022-11-17T20:46:37.343Z,10.10
2022-11-17T20:49:24.926Z,10.19
2022-11-17T20:52:13.637Z,9.60
2022-11-17T20:55:01.283Z,9.79
2022-11-17T20:57:49.044Z,10.13
2022-11-17T21:00:36.716Z,10.08
2022-11-17T21:03:24.279Z,10.05
2022-11-17T21:06:02.151Z,10.14
2022-11-17T21:08:29.441Z,10.08
2022-11-17T21:10:56.742Z,10.38
2022-11-17T21:13:24.205Z,10.47
2022-11-17T21:15:51.588Z,10.31
2022-11-17T21:18:18.822Z,10.29
2022-11-17T21:20:46.484Z,10.21
2022-11-17T21:23:14.267Z,10.30
2022-11-17T21:25:52.773Z,9.93
2022-11-17T21:28:20.064Z,9.81
2022-11-17T21:30:47.777Z,10.03
2022-11-17T21:33:15.452Z,9.40
2022-11-17T21:35:42.931Z,9.37
2022-11-17T21:38:10.676Z,9.72
2022-11-17T21:40:38.945Z,9.93
2022-11-17T21:43:06.634Z,9.38
2022-11-17T21:45:35.003Z,9.56
2022-11-17T21:48:02.654Z,8.89
2022-11-17T21:50:31.673Z,9.14
2022-11-17T21:52:59.138Z,9.10
2022-11-17T21:55:26.568Z,9.39
2022-11-17T21:57:53.948Z,8.94
2022-11-17T22:00:21.679Z,9.34
2022-11-17T22:02:54.780Z,9.35
2022-11-17T22:05:22.639Z,9.94
2022-11-17T22:07:50.213Z,9.63
2022-11-17T22:10:20.179Z,9.85
2022-11-17T22:12:47.688Z,9.82
2022-11-17T22:15:15.145Z,9.74
2022-11-17T22:17:42.688Z,9.63
2022-11-17T22:20:13.746Z,8.76
2022-11-17T22:22:41.316Z,8.89
2022-11-17T22:25:30.264Z,9.37
2022-11-17T22:28:02.257Z,9.69
2022-11-17T22:30:29.991Z,9.79
2022-11-17T22:32:57.986Z,9.82
2022-11-17T22:35:25.628Z,9.41
2022-11-17T22:37:55.110Z,9.86
2022-11-17T22:40:23.712Z,10.04
2022-11-17T22:42:51.176Z,9.71
2022-11-17T22:45:18.728Z,9.45
2022-11-17T22:48:04.644Z,9.29
2022-11-17T22:50:32.244Z,9.38
2022-11-17T22:53:02.643Z,9.18
2022-11-17T22:55:30.497Z,9.63
2022-11-17T22:58:01.723Z,10.14
2022-11-17T23:00:29.192Z,9.89
2022-11-17T23:02:56.752Z,9.78
2022-11-17T23:05:24.300Z,9.59
2022-11-17T23:07:51.892Z,9.77
2022-11-17T23:10:25.339Z,9.42
2022-11-17T23:12:53.477Z,9.26
2022-11-17T23:15:20.915Z,9.53
2022-11-17T23:17:48.392Z,9.45
2022-11-17T23:20:16.006Z,9.61
2022-11-17T23:22:43.577Z,9.83
2022-11-17T23:25:16.157Z,9.68
2022-11-17T23:27:43.533Z,9.31
2022-11-17T23:30:11.424Z,9.05
2022-11-17T23:32:39.259Z,8.85
2022-11-17T23:35:07.502Z,8.71
2022-11-17T23:37:34.891Z,8.37
2022-11-17T23:40:02.569Z,8.50
2022-11-17T23:42:32.463Z,8.49
2022-11-17T23:45:00.633Z,8.31
2022-11-17T23:47:32.636Z,8.47
2022-11-17T23:50:00.548Z,8.34
2022-11-17T23:52:28.000Z,8.28
2022-11-17T23:54:55.317Z,8.08
2022-11-17T23:57:23.070Z,8.35
2022-11-17T23:59:50.401Z,8.16
